createdAt,value
2019-05-23T00:00:41.292Z,10.60
2019-05-23T00:03:12.841Z,10.70
2019-05-23T00:05:45.900Z,10.70
2019-05-23T00:08:18.472Z,10.70
2019-05-23T00:11:06.716Z,10.70
2019-05-23T00:13:57.701Z,10.70
2019-05-23T00:16:28.989Z,10.80
2019-05-23T00:18:58.739Z,10.80
2019-05-23T00:21:28.620Z,10.80
2019-05-23T00:24:00.262Z,10.80
2019-05-23T00:26:31.321Z,10.80
2019-05-23T00:29:10.138Z,10.80
2019-05-23T00:31:45.790Z,10.80
2019-05-23T00:34:16.838Z,10.80
2019-05-23T00:36:46.974Z,10.70
2019-05-23T00:39:16.927Z,10.80
2019-05-23T00:41:47.113Z,10.70
2019-05-23T00:44:16.636Z,10.70
2019-05-23T00:46:46.550Z,10.70
2019-05-23T00:49:18.347Z,10.70
2019-05-23T00:51:48.637Z,10.60
2019-05-23T00:54:18.334Z,10.60
2019-05-23T00:56:49.657Z,10.60
2019-05-23T00:59:27.185Z,10.50
2019-05-23T01:01:50.900Z,10.50
2019-05-23T01:04:22.164Z,10.40
2019-05-23T01:06:52.305Z,10.40
2019-05-23T01:09:22.880Z,10.40
2019-05-23T01:11:53.655Z,10.30
2019-05-23T01:14:23.388Z,10.30
2019-05-23T01:16:53.606Z,10.20
2019-05-23T01:19:24.226Z,10.20
2019-05-23T01:21:59.432Z,10.20
2019-05-23T01:24:43.460Z,10.20
2019-05-23T01:27:13.872Z,10.10
2019-05-23T01:29:50.143Z,10.10
2019-05-23T01:32:42.686Z,10.10
2019-05-23T01:35:13.789Z,10.00
2019-05-23T01:37:45.271Z,10.00
2019-05-23T01:40:16.596Z,10.00
2019-05-23T01:42:47.914Z,9.90
2019-05-23T01:45:17.676Z,9.90
2019-05-23T01:47:49.356Z,9.80
2019-05-23T01:50:21.712Z,9.70
2019-05-23T01:53:04.974Z,9.70
2019-05-23T01:55:35.058Z,9.70
2019-05-23T01:58:05.584Z,9.60
2019-05-23T02:00:35.258Z,9.60
2019-05-23T02:03:06.808Z,9.50
2019-05-23T02:05:36.891Z,9.50
2019-05-23T02:08:09.351Z,9.50
2019-05-23T02:10:38.947Z,9.40
2019-05-23T02:13:08.871Z,9.40
2019-05-23T02:15:39.048Z,9.40
2019-05-23T02:18:09.058Z,9.40
2019-05-23T02:20:39.193Z,9.40
2019-05-23T02:23:10.406Z,9.30
2019-05-23T02:25:41.074Z,9.30
2019-05-23T02:28:11.300Z,9.30
2019-05-23T02:30:40.917Z,9.20
2019-05-23T02:33:12.504Z,9.20
2019-05-23T02:35:42.247Z,9.10
2019-05-23T02:38:29.315Z,9.10
2019-05-23T02:41:17.188Z,9.00
2019-05-23T02:43:50.839Z,8.90
2019-05-23T02:46:29.606Z,8.90
2019-05-23T02:49:03.813Z,8.80
2019-05-23T02:51:37.063Z,8.70
2019-05-23T02:54:11.653Z,8.60
2019-05-23T02:56:41.649Z,8.60
2019-05-23T02:59:26.856Z,8.50
2019-05-23T03:02:33.584Z,8.50
2019-05-23T03:05:04.319Z,8.50
2019-05-23T03:07:35.376Z,8.40
2019-05-23T03:10:07.129Z,8.40
2019-05-23T03:12:38.882Z,8.30
2019-05-23T03:15:11.132Z,8.30
2019-05-23T03:17:42.865Z,8.30
2019-05-23T03:20:12.632Z,8.30
2019-05-23T03:22:48.846Z,8.30
2019-05-23T03:25:46.665Z,8.20
2019-05-23T03:28:18.155Z,8.20
2019-05-23T03:30:49.649Z,8.20
2019-05-23T03:33:20.132Z,8.20
2019-05-23T03:35:50.985Z,8.20
2019-05-23T03:38:21.718Z,8.10
2019-05-23T03:40:51.260Z,8.20
2019-05-23T03:43:21.209Z,8.20
2019-05-23T03:45:53.272Z,8.20
2019-05-23T03:48:24.213Z,8.20
2019-05-23T03:50:55.397Z,8.20
2019-05-23T03:53:27.801Z,8.30
2019-05-23T03:55:59.487Z,8.30
2019-05-23T03:58:31.747Z,8.30
2019-05-23T04:01:02.922Z,8.40
2019-05-23T04:03:33.050Z,8.40
2019-05-23T04:06:02.681Z,8.50
2019-05-23T04:08:32.289Z,8.50
2019-05-23T04:11:01.811Z,8.50
2019-05-23T04:13:31.399Z,8.60
2019-05-23T04:16:01.625Z,8.60
2019-05-23T04:18:32.432Z,8.60
2019-05-23T04:21:03.819Z,8.70
2019-05-23T04:23:33.917Z,8.70
2019-05-23T04:26:03.555Z,8.80
2019-05-23T04:28:33.224Z,8.80
2019-05-23T04:31:03.835Z,8.90
2019-05-23T04:33:33.752Z,8.90
2019-05-23T04:36:04.496Z,9.00
2019-05-23T04:38:36.376Z,9.10
2019-05-23T04:41:06.218Z,9.10
2019-05-23T04:43:35.878Z,9.20
2019-05-23T04:46:05.930Z,9.20
2019-05-23T04:48:36.339Z,9.30
2019-05-23T04:51:05.986Z,9.40
2019-05-23T04:53:35.773Z,9.40
2019-05-23T04:56:06.252Z,9.50
2019-05-23T04:58:36.377Z,9.60
2019-05-23T05:01:07.326Z,9.70
2019-05-23T05:03:37.100Z,9.80
2019-05-23T05:06:06.983Z,9.80
2019-05-23T05:08:36.719Z,9.90
2019-05-23T05:11:06.994Z,10.00
2019-05-23T05:13:36.976Z,10.10
2019-05-23T05:16:06.730Z,10.10
2019-05-23T05:18:36.973Z,10.20
2019-05-23T05:21:06.647Z,10.40
2019-05-23T05:23:36.496Z,10.50
2019-05-23T05:26:09.761Z,10.70
2019-05-23T05:28:40.209Z,10.80
2019-05-23T05:31:09.799Z,11.10
2019-05-23T05:33:39.639Z,11.30
2019-05-23T05:36:09.294Z,11.50
2019-05-23T05:38:39.167Z,11.70
2019-05-23T05:41:08.941Z,11.80
2019-05-23T05:43:39.350Z,11.80
2019-05-23T05:46:09.412Z,11.90
2019-05-23T05:48:39.202Z,12.10
2019-05-23T05:51:09.349Z,12.20
2019-05-23T05:53:39.418Z,12.30
2019-05-23T05:56:09.187Z,12.50
2019-05-23T05:58:38.882Z,12.70
2019-05-23T06:01:10.895Z,12.90
2019-05-23T06:03:41.795Z,13.20
2019-05-23T06:06:25.629Z,13.30
2019-05-23T06:08:57.993Z,13.20
2019-05-23T06:11:27.612Z,13.10
2019-05-23T06:13:57.471Z,13.10
2019-05-23T06:16:27.655Z,13.00
2019-05-23T06:19:13.387Z,13.10
2019-05-23T06:21:44.327Z,13.20
2019-05-23T06:24:14.709Z,13.20
2019-05-23T06:26:45.045Z,13.10
2019-05-23T06:29:19.359Z,13.00
2019-05-23T06:31:51.023Z,13.00
2019-05-23T06:34:23.732Z,13.00
2019-05-23T06:36:54.527Z,13.00
2019-05-23T06:39:25.904Z,13.00
2019-05-23T06:41:56.011Z,13.10
2019-05-23T06:44:25.804Z,13.20
2019-05-23T06:46:55.696Z,13.20
2019-05-23T06:49:27.913Z,13.20
2019-05-23T06:51:58.019Z,13.40
2019-05-23T06:54:29.143Z,13.40
2019-05-23T06:56:59.049Z,13.30
2019-05-23T06:59:28.889Z,13.40
2019-05-23T07:01:58.897Z,13.50
2019-05-23T07:04:29.342Z,13.60
2019-05-23T07:06:59.749Z,13.70
2019-05-23T07:09:30.035Z,13.80
2019-05-23T07:12:00.930Z,13.90
2019-05-23T07:14:41.360Z,14.00
2019-05-23T07:17:11.844Z,14.10
2019-05-23T07:19:44.069Z,14.00
2019-05-23T07:22:17.899Z,13.90
2019-05-23T07:24:57.542Z,13.90
2019-05-23T07:27:20.229Z,14.00
2019-05-23T07:29:51.225Z,14.00
2019-05-23T07:32:20.849Z,14.10
2019-05-23T07:34:50.676Z,14.20
2019-05-23T07:37:20.525Z,14.30
2019-05-23T07:39:51.161Z,14.30
2019-05-23T07:42:23.621Z,14.30
2019-05-23T07:45:00.510Z,14.40
2019-05-23T07:47:31.143Z,14.40
2019-05-23T07:50:04.288Z,14.50
2019-05-23T07:52:37.330Z,14.60
2019-05-23T07:55:35.338Z,14.60
2019-05-23T07:58:07.307Z,14.70
2019-05-23T08:00:40.956Z,14.80
2019-05-23T08:03:11.450Z,14.90
2019-05-23T08:05:44.516Z,14.90
2019-05-23T08:08:15.070Z,15.00
2019-05-23T08:10:44.761Z,14.90
2019-05-23T08:13:14.463Z,14.90
2019-05-23T08:15:44.503Z,14.90
2019-05-23T08:18:17.556Z,14.90
2019-05-23T08:20:51.076Z,14.80
2019-05-23T08:23:34.367Z,14.80
2019-05-23T08:26:21.555Z,14.80
2019-05-23T08:29:22.311Z,14.80
2019-05-23T08:31:27.358Z,15.00
2019-05-23T08:34:43.212Z,15.20
2019-05-23T08:37:14.534Z,15.40
2019-05-23T08:39:48.803Z,15.40
2019-05-23T08:42:56.819Z,15.40
2019-05-23T08:45:32.547Z,15.60
2019-05-23T08:48:24.130Z,15.70
2019-05-23T08:51:35.631Z,15.60
2019-05-23T08:54:23.785Z,15.50
2019-05-23T08:56:59.532Z,15.60
2019-05-23T08:59:33.999Z,15.50
2019-05-23T09:02:49.853Z,15.50
2019-05-23T09:05:23.943Z,15.60
2019-05-23T09:07:55.284Z,15.70
2019-05-23T09:10:34.404Z,15.80
2019-05-23T09:13:24.319Z,15.90
2019-05-23T09:16:01.027Z,16.00
2019-05-23T09:22:06.008Z,16.20
2019-05-23T09:24:39.037Z,16.40
2019-05-23T09:27:10.273Z,16.40
2019-05-23T09:29:41.766Z,16.30
2019-05-23T09:32:20.318Z,16.30
2019-05-23T09:34:49.971Z,16.40
2019-05-23T09:37:19.941Z,16.40
2019-05-23T09:39:51.886Z,16.40
2019-05-23T09:42:22.060Z,16.40
2019-05-23T09:44:54.510Z,16.40
2019-05-23T09:47:24.217Z,16.40
2019-05-23T09:49:54.344Z,16.50
2019-05-23T09:52:25.183Z,16.60
2019-05-23T09:54:54.923Z,16.60
2019-05-23T09:57:38.246Z,16.60
2019-05-23T10:00:10.297Z,16.60
2019-05-23T10:02:39.952Z,16.70
2019-05-23T10:05:11.295Z,16.60
2019-05-23T10:07:41.399Z,16.60
2019-05-23T10:10:11.558Z,16.60
2019-05-23T10:12:41.275Z,16.60
2019-05-23T10:15:15.440Z,16.70
2019-05-23T10:17:45.480Z,16.80
2019-05-23T10:20:16.294Z,16.80
2019-05-23T10:22:46.031Z,16.80
2019-05-23T10:25:15.897Z,17.00
2019-05-23T10:27:55.878Z,17.10
2019-05-23T10:30:25.933Z,17.20
2019-05-23T10:32:55.625Z,17.20
2019-05-23T10:35:26.714Z,17.30
2019-05-23T10:37:56.690Z,17.40
2019-05-23T10:40:27.457Z,17.40
2019-05-23T10:42:57.622Z,17.50
2019-05-23T10:45:27.683Z,17.60
2019-05-23T10:47:57.561Z,17.70
2019-05-23T10:50:43.347Z,17.80
2019-05-23T10:52:58.721Z,17.90
2019-05-23T10:55:28.504Z,17.90
2019-05-23T10:58:01.968Z,18.00
2019-05-23T11:00:33.240Z,18.00
2019-05-23T11:03:05.314Z,18.00
2019-05-23T11:05:35.031Z,18.10
2019-05-23T11:08:06.682Z,18.10
2019-05-23T11:10:37.537Z,18.10
2019-05-23T11:13:07.554Z,18.10
2019-05-23T11:15:37.856Z,18.20
2019-05-23T11:18:08.463Z,18.20
2019-05-23T11:20:38.249Z,18.30
2019-05-23T11:23:08.345Z,18.40
2019-05-23T11:25:39.961Z,18.40
2019-05-23T11:28:09.630Z,18.50
2019-05-23T11:30:46.326Z,18.60
2019-05-23T11:33:16.165Z,18.70
2019-05-23T11:35:47.103Z,18.80
2019-05-23T11:38:17.131Z,18.80
2019-05-23T11:40:46.843Z,18.90
2019-05-23T11:43:16.705Z,19.10
2019-05-23T11:46:05.273Z,19.20
2019-05-23T11:48:35.021Z,19.20
2019-05-23T11:51:04.797Z,19.20
2019-05-23T11:53:35.009Z,19.10
2019-05-23T11:56:04.675Z,19.20
2019-05-23T11:58:35.197Z,19.20
2019-05-23T12:01:19.833Z,19.40
2019-05-23T12:03:43.357Z,19.50
2019-05-23T12:06:13.415Z,19.50
2019-05-23T12:08:43.092Z,19.60
2019-05-23T12:11:13.064Z,19.70
2019-05-23T12:13:42.801Z,19.70
2019-05-23T12:16:12.605Z,19.80
2019-05-23T12:18:42.278Z,19.90
2019-05-23T12:21:12.140Z,20.00
2019-05-23T12:23:41.842Z,20.10
2019-05-23T12:26:11.484Z,20.20
2019-05-23T12:28:41.063Z,20.30
2019-05-23T12:31:10.791Z,20.40
2019-05-23T12:33:40.779Z,20.50
2019-05-23T12:36:11.871Z,20.60
2019-05-23T12:38:41.591Z,20.70
2019-05-23T12:41:12.869Z,20.80
2019-05-23T12:43:42.584Z,20.90
2019-05-23T12:46:12.293Z,20.90
2019-05-23T12:48:52.292Z,20.90
2019-05-23T12:51:23.798Z,20.90
2019-05-23T12:53:53.542Z,20.90
2019-05-23T12:56:23.143Z,21.00
2019-05-23T12:58:53.175Z,21.00
2019-05-23T13:01:24.060Z,21.10
2019-05-23T13:03:53.658Z,21.20
2019-05-23T13:06:23.477Z,21.30
2019-05-23T13:08:53.067Z,21.40
2019-05-23T13:11:22.733Z,21.50
2019-05-23T13:13:52.404Z,21.60
2019-05-23T13:16:22.044Z,21.70
2019-05-23T13:18:51.765Z,21.70
2019-05-23T13:21:21.479Z,21.80
2019-05-23T13:23:51.271Z,21.90
2019-05-23T13:26:21.163Z,22.10
2019-05-23T13:28:50.904Z,22.30
2019-05-23T13:31:20.348Z,22.40
2019-05-23T13:33:49.903Z,22.50
2019-05-23T13:36:19.653Z,22.50
2019-05-23T13:38:49.530Z,22.40
2019-05-23T13:41:19.027Z,22.30
2019-05-23T13:43:48.563Z,22.30
2019-05-23T13:46:18.123Z,22.30
2019-05-23T13:48:47.612Z,22.30
2019-05-23T13:51:17.108Z,22.30
2019-05-23T13:53:46.511Z,22.20
2019-05-23T13:56:16.865Z,22.30
2019-05-23T13:58:46.643Z,22.30
2019-05-23T14:01:16.414Z,22.30
2019-05-23T14:03:46.363Z,22.30
2019-05-23T14:06:16.219Z,22.30
2019-05-23T14:08:46.103Z,22.30
2019-05-23T14:11:16.092Z,22.20
2019-05-23T14:13:46.114Z,22.10
2019-05-23T14:16:16.151Z,22.10
2019-05-23T14:18:45.871Z,22.10
2019-05-23T14:21:15.441Z,22.20
2019-05-23T14:23:45.223Z,22.20
2019-05-23T14:26:16.453Z,22.20
2019-05-23T14:28:46.187Z,22.20
2019-05-23T14:31:20.721Z,22.20
2019-05-23T14:34:04.382Z,22.20
2019-05-23T14:36:58.568Z,22.10
2019-05-23T14:39:41.888Z,22.10
2019-05-23T14:42:29.448Z,22.00
2019-05-23T14:44:59.195Z,22.00
2019-05-23T14:47:49.074Z,22.00
2019-05-23T14:50:37.542Z,22.00
2019-05-23T14:53:08.885Z,21.90
2019-05-23T14:55:38.949Z,21.80
2019-05-23T14:58:09.708Z,21.70
2019-05-23T15:00:39.979Z,21.70
2019-05-23T15:03:14.186Z,21.70
2019-05-23T15:05:43.953Z,21.60
2019-05-23T15:08:14.279Z,21.60
2019-05-23T15:10:43.773Z,21.60
2019-05-23T15:13:13.958Z,21.50
2019-05-23T15:15:43.531Z,21.40
2019-05-23T15:18:13.160Z,21.40
2019-05-23T15:20:42.704Z,21.40
2019-05-23T15:23:12.496Z,21.40
2019-05-23T15:25:41.902Z,21.40
2019-05-23T15:28:11.494Z,21.50
2019-05-23T15:30:40.975Z,21.50
2019-05-23T15:33:10.373Z,21.60
2019-05-23T15:35:40.020Z,21.40
2019-05-23T15:38:09.619Z,21.30
2019-05-23T15:40:39.013Z,21.20
2019-05-23T15:43:09.919Z,21.30
2019-05-23T15:45:39.439Z,21.40
2019-05-23T15:48:09.087Z,21.50
2019-05-23T15:50:43.656Z,21.60
2019-05-23T15:53:44.055Z,21.70
2019-05-23T15:56:28.180Z,21.90
2019-05-23T15:59:23.695Z,21.90
2019-05-23T16:02:00.691Z,22.10
2019-05-23T16:04:30.339Z,22.40
2019-05-23T16:07:00.153Z,22.60
2019-05-23T16:09:31.066Z,23.00
2019-05-23T16:12:03.704Z,23.40
2019-05-23T16:14:33.730Z,23.80
2019-05-23T16:17:03.227Z,24.10
2019-05-23T16:19:32.631Z,24.40
2019-05-23T16:22:02.282Z,24.70
2019-05-23T16:24:31.723Z,25.10
2019-05-23T16:27:01.286Z,25.50
2019-05-23T16:29:30.827Z,26.00
2019-05-23T16:32:00.246Z,26.20
2019-05-23T16:34:29.680Z,26.30
2019-05-23T16:36:59.106Z,26.10
2019-05-23T16:39:44.138Z,25.80
2019-05-23T16:41:59.682Z,25.40
2019-05-23T16:44:29.049Z,25.10
2019-05-23T16:46:58.455Z,24.90
2019-05-23T16:49:28.116Z,24.50
2019-05-23T16:51:57.752Z,23.90
2019-05-23T16:54:31.518Z,23.40
2019-05-23T16:57:10.064Z,23.00
2019-05-23T16:59:46.978Z,22.60
2019-05-23T17:02:25.156Z,22.10
2019-05-23T17:05:16.659Z,21.90
2019-05-23T17:08:03.841Z,21.90
2019-05-23T17:10:48.100Z,22.00
2019-05-23T17:13:42.200Z,22.20
2019-05-23T17:16:29.267Z,22.50
2019-05-23T17:19:16.052Z,22.90
2019-05-23T17:22:07.419Z,22.70
2019-05-23T17:24:58.547Z,22.30
2019-05-23T17:27:52.306Z,21.70
2019-05-23T17:30:30.423Z,21.30
2019-05-23T17:33:00.337Z,21.00
2019-05-23T17:35:29.835Z,20.70
2019-05-23T17:37:59.266Z,20.50
2019-05-23T17:40:29.158Z,20.30
2019-05-23T17:42:58.608Z,20.10
2019-05-23T17:45:28.398Z,19.90
2019-05-23T17:47:57.975Z,19.70
2019-05-23T17:50:28.812Z,19.60
2019-05-23T17:52:58.295Z,19.40
2019-05-23T17:55:28.207Z,19.30
2019-05-23T17:57:57.763Z,19.20
2019-05-23T18:00:32.343Z,19.00
2019-05-23T18:03:01.802Z,18.90
2019-05-23T18:05:32.044Z,18.70
2019-05-23T18:08:01.703Z,18.60
2019-05-23T18:10:44.080Z,18.50
2019-05-23T18:13:03.292Z,18.30
2019-05-23T18:15:32.843Z,18.20
2019-05-23T18:18:02.672Z,18.20
2019-05-23T18:20:33.007Z,18.10
2019-05-23T18:23:02.582Z,18.10
2019-05-23T18:25:31.952Z,18.00
2019-05-23T18:28:01.496Z,18.00
2019-05-23T18:30:48.712Z,17.90
2019-05-23T18:33:18.982Z,17.90
2019-05-23T18:35:49.113Z,17.80
2019-05-23T18:38:19.315Z,17.70
2019-05-23T18:41:02.388Z,17.60
2019-05-23T18:43:20.831Z,17.60
2019-05-23T18:45:51.988Z,17.50
2019-05-23T18:48:21.479Z,17.50
2019-05-23T18:50:51.239Z,17.40
2019-05-23T18:53:20.858Z,17.30
2019-05-23T18:55:50.772Z,17.30
2019-05-23T18:58:20.621Z,17.20
2019-05-23T19:01:18.540Z,17.10
2019-05-23T19:03:48.020Z,17.10
2019-05-23T19:06:17.514Z,17.00
2019-05-23T19:08:46.976Z,16.90
2019-05-23T19:11:21.543Z,16.90
2019-05-23T19:13:47.642Z,16.80
2019-05-23T19:16:17.365Z,16.80
2019-05-23T19:18:47.304Z,16.70
2019-05-23T19:21:17.944Z,16.60
2019-05-23T19:23:47.565Z,16.60
2019-05-23T19:26:17.668Z,16.50
2019-05-23T19:28:47.118Z,16.40
2019-05-23T19:31:16.935Z,16.40
2019-05-23T19:33:47.047Z,16.30
2019-05-23T19:36:16.879Z,16.20
2019-05-23T19:38:46.565Z,16.20
2019-05-23T19:41:16.515Z,16.20
2019-05-23T19:43:48.289Z,16.10
2019-05-23T19:46:17.834Z,16.10
2019-05-23T19:48:48.574Z,16.00
2019-05-23T19:51:18.715Z,16.00
2019-05-23T19:53:48.494Z,15.90
2019-05-23T19:56:18.112Z,15.90
2019-05-23T19:58:47.623Z,15.90
2019-05-23T20:01:17.348Z,15.80
2019-05-23T20:03:47.837Z,15.80
2019-05-23T20:06:17.477Z,15.70
2019-05-23T20:08:47.172Z,15.70
2019-05-23T20:11:17.086Z,15.70
2019-05-23T20:13:46.556Z,15.70
2019-05-23T20:16:16.133Z,15.60
2019-05-23T20:18:45.638Z,15.60
2019-05-23T20:21:17.067Z,15.50
2019-05-23T20:23:46.542Z,15.40
2019-05-23T20:26:16.093Z,15.40
2019-05-23T20:28:45.633Z,15.30
2019-05-23T20:31:15.338Z,15.30
2019-05-23T20:33:44.827Z,15.20
2019-05-23T20:36:14.363Z,15.10
2019-05-23T20:38:44.383Z,15.10
2019-05-23T20:41:14.078Z,15.00
2019-05-23T20:43:43.630Z,14.90
2019-05-23T20:46:13.348Z,14.90
2019-05-23T20:48:44.662Z,14.80
2019-05-23T20:51:15.775Z,14.80
2019-05-23T20:53:45.318Z,14.70
2019-05-23T20:56:14.759Z,14.70
2019-05-23T20:58:44.339Z,14.60
2019-05-23T21:01:32.427Z,14.60
2019-05-23T21:04:02.001Z,14.60
2019-05-23T21:06:31.445Z,14.50
2019-05-23T21:09:00.949Z,14.40
2019-05-23T21:11:30.498Z,14.40
2019-05-23T21:14:00.116Z,14.40
2019-05-23T21:16:29.650Z,14.30
2019-05-23T21:18:59.113Z,14.30
2019-05-23T21:21:28.523Z,14.20
2019-05-23T21:23:58.008Z,14.20
2019-05-23T21:26:27.527Z,14.20
2019-05-23T21:28:56.940Z,14.20
2019-05-23T21:31:27.003Z,14.20
2019-05-23T21:33:56.554Z,14.10
2019-05-23T21:36:25.946Z,14.20
2019-05-23T21:38:55.522Z,14.20
2019-05-23T21:41:25.059Z,14.20
2019-05-23T21:43:56.375Z,14.20
2019-05-23T21:46:25.819Z,14.20
2019-05-23T21:48:55.415Z,14.30
2019-05-23T21:51:24.871Z,14.30
2019-05-23T21:53:54.379Z,14.30
2019-05-23T21:56:24.363Z,14.40
2019-05-23T21:58:56.548Z,14.40
2019-05-23T22:01:45.507Z,14.40
2019-05-23T22:04:32.855Z,14.40
2019-05-23T22:07:08.999Z,14.40
2019-05-23T22:09:38.571Z,14.40
2019-05-23T22:12:11.612Z,14.40
2019-05-23T22:14:41.068Z,14.40
2019-05-23T22:17:10.552Z,14.40
2019-05-23T22:19:40.035Z,14.30
2019-05-23T22:22:09.904Z,14.40
2019-05-23T22:24:39.398Z,14.30
2019-05-23T22:27:10.165Z,14.30
2019-05-23T22:29:39.697Z,14.20
2019-05-23T22:32:10.484Z,14.20
2019-05-23T22:35:13.810Z,14.20
2019-05-23T22:37:43.269Z,14.20
2019-05-23T22:40:14.245Z,14.10
2019-05-23T22:42:43.947Z,14.10
2019-05-23T22:45:15.214Z,14.10
2019-05-23T22:47:44.657Z,14.00
2019-05-23T22:50:14.272Z,14.00
2019-05-23T22:52:43.800Z,13.90
2019-05-23T22:55:13.240Z,13.80
2019-05-23T22:57:42.694Z,13.80
2019-05-23T23:00:14.048Z,13.80
2019-05-23T23:02:45.892Z,13.70
2019-05-23T23:05:14.775Z,13.70
2019-05-23T23:07:44.261Z,13.70
2019-05-23T23:10:13.715Z,13.70
2019-05-23T23:12:43.282Z,13.60
2019-05-23T23:15:13.126Z,13.60
2019-05-23T23:17:42.775Z,13.50
2019-05-23T23:20:12.423Z,13.50
2019-05-23T23:22:41.971Z,13.40
2019-05-23T23:25:12.130Z,13.40
2019-05-23T23:27:41.653Z,13.40
2019-05-23T23:30:12.878Z,13.40
2019-05-23T23:32:42.355Z,13.30
2019-05-23T23:35:11.843Z,13.30
2019-05-23T23:37:41.387Z,13.30
2019-05-23T23:40:11.460Z,13.30
2019-05-23T23:42:41.240Z,13.20
2019-05-23T23:45:28.179Z,13.20
2019-05-23T23:48:14.967Z,13.20
2019-05-23T23:51:01.730Z,13.20
2019-05-23T23:53:48.621Z,13.10
2019-05-23T23:56:35.623Z,13.10
2019-05-23T23:59:04.118Z,13.10
